sensor_id;sensor_type;location;lat;lon;timestamp;pressure;altitude;pressure_sealevel;temperature;humidity
71485;BME280;59300;52.074;4.758;2022-07-30T00:03:00;101911.25;;;14.81;93.30
71485;BME280;59300;52.074;4.758;2022-07-30T00:06:19;101910.47;;;14.79;93.70
71485;BME280;59300;52.074;4.758;2022-07-30T00:09:38;101917.88;;;14.67;93.89
71485;BME280;59300;52.074;4.758;2022-07-30T00:12:57;101918.88;;;14.62;94.28
71485;BME280;59300;52.074;4.758;2022-07-30T00:16:16;101920.84;;;14.53;94.77
71485;BME280;59300;52.074;4.758;2022-07-30T00:19:35;101915.69;;;14.49;94.90
71485;BME280;59300;52.074;4.758;2022-07-30T00:22:54;101911.69;;;14.32;95.05
71485;BME280;59300;52.074;4.758;2022-07-30T00:26:12;101911.94;;;14.23;96.46
71485;BME280;59300;52.074;4.758;2022-07-30T00:29:31;101908.44;;;14.21;97.03
71485;BME280;59300;52.074;4.758;2022-07-30T00:32:50;101903.44;;;14.08;97.34
71485;BME280;59300;52.074;4.758;2022-07-30T00:36:09;101901.00;;;14.01;97.70
71485;BME280;59300;52.074;4.758;2022-07-30T00:39:28;101887.00;;;13.94;97.95
71485;BME280;59300;52.074;4.758;2022-07-30T00:42:47;101887.13;;;13.89;97.96
71485;BME280;59300;52.074;4.758;2022-07-30T00:46:06;101893.47;;;13.83;98.78
71485;BME280;59300;52.074;4.758;2022-07-30T00:49:26;101893.69;;;13.74;98.95
71485;BME280;59300;52.074;4.758;2022-07-30T00:52:45;101893.75;;;13.71;99.09
71485;BME280;59300;52.074;4.758;2022-07-30T00:56:04;101901.94;;;13.62;99.22
71485;BME280;59300;52.074;4.758;2022-07-30T00:59:23;101901.03;;;13.63;99.75
71485;BME280;59300;52.074;4.758;2022-07-30T01:02:43;101885.19;;;13.60;99.74
71485;BME280;59300;52.074;4.758;2022-07-30T01:06:02;101897.78;;;13.51;99.68
71485;BME280;59300;52.074;4.758;2022-07-30T01:09:21;101890.84;;;13.44;99.47
71485;BME280;59300;52.074;4.758;2022-07-30T01:12:41;101896.16;;;13.44;99.66
71485;BME280;59300;52.074;4.758;2022-07-30T01:16:01;101898.03;;;13.37;99.98
71485;BME280;59300;52.074;4.758;2022-07-30T01:19:24;101897.13;;;13.39;100.00
71485;BME280;59300;52.074;4.758;2022-07-30T01:22:51;101894.66;;;13.31;100.00
71485;BME280;59300;52.074;4.758;2022-07-30T01:26:17;101899.16;;;13.27;100.00
71485;BME280;59300;52.074;4.758;2022-07-30T01:29:38;101893.88;;;13.27;100.00
71485;BME280;59300;52.074;4.758;2022-07-30T01:33:00;101895.81;;;13.19;100.00
71485;BME280;59300;52.074;4.758;2022-07-30T01:36:21;101889.75;;;13.14;100.00
71485;BME280;59300;52.074;4.758;2022-07-30T01:39:41;101890.63;;;13.14;100.00
71485;BME280;59300;52.074;4.758;2022-07-30T01:43:01;101880.88;;;13.16;100.00
71485;BME280;59300;52.074;4.758;2022-07-30T01:46:22;101889.72;;;13.15;100.00
71485;BME280;59300;52.074;4.758;2022-07-30T01:49:44;101887.13;;;13.12;100.00
71485;BME280;59300;52.074;4.758;2022-07-30T01:53:04;101888.19;;;13.03;100.00
71485;BME280;59300;52.074;4.758;2022-07-30T01:56:25;101888.19;;;13.03;100.00
71485;BME280;59300;52.074;4.758;2022-07-30T01:59:48;101889.16;;;13.01;100.00
71485;BME280;59300;52.074;4.758;2022-07-30T02:03:09;101894.47;;;12.99;100.00
71485;BME280;59300;52.074;4.758;2022-07-30T02:06:37;101888.34;;;12.96;100.00
71485;BME280;59300;52.074;4.758;2022-07-30T02:10:11;101889.34;;;12.92;100.00
71485;BME280;59300;52.074;4.758;2022-07-30T02:13:44;101895.34;;;13.00;100.00
71485;BME280;59300;52.074;4.758;2022-07-30T02:17:06;101891.84;;;12.98;100.00
71485;BME280;59300;52.074;4.758;2022-07-30T02:20:28;101890.16;;;12.94;100.00
71485;BME280;59300;52.074;4.758;2022-07-30T02:23:49;101894.56;;;12.96;100.00
71485;BME280;59300;52.074;4.758;2022-07-30T02:27:15;101900.66;;;13.00;100.00
71485;BME280;59300;52.074;4.758;2022-07-30T02:30:40;101898.91;;;12.99;100.00
71485;BME280;59300;52.074;4.758;2022-07-30T02:34:03;101895.38;;;12.98;100.00
71485;BME280;59300;52.074;4.758;2022-07-30T02:37:23;101892.00;;;12.92;100.00
71485;BME280;59300;52.074;4.758;2022-07-30T02:40:44;101900.84;;;12.90;100.00
71485;BME280;59300;52.074;4.758;2022-07-30T02:44:04;101893.81;;;12.89;100.00
71485;BME280;59300;52.074;4.758;2022-07-30T02:47:25;101902.72;;;12.85;100.00
71485;BME280;59300;52.074;4.758;2022-07-30T02:50:55;101895.72;;;12.81;100.00
71485;BME280;59300;52.074;4.758;2022-07-30T02:54:17;101892.31;;;12.76;100.00
71485;BME280;59300;52.074;4.758;2022-07-30T02:57:39;101880.06;;;12.69;100.00
71485;BME280;59300;52.074;4.758;2022-07-30T03:01:01;101882.03;;;12.60;100.00
71485;BME280;59300;52.074;4.758;2022-07-30T03:04:20;101881.31;;;12.52;100.00
71485;BME280;59300;52.074;4.758;2022-07-30T03:07:41;101880.56;;;12.44;100.00
71485;BME280;59300;52.074;4.758;2022-07-30T03:11:02;101889.53;;;12.37;100.00
71485;BME280;59300;52.074;4.758;2022-07-30T03:14:22;101897.56;;;12.31;100.00
71485;BME280;59300;52.074;4.758;2022-07-30T03:17:43;101892.22;;;12.34;100.00
71485;BME280;59300;52.074;4.758;2022-07-30T03:21:06;101892.09;;;12.41;100.00
71485;BME280;59300;52.074;4.758;2022-07-30T03:24:26;101896.56;;;12.38;100.00
71485;BME280;59300;52.074;4.758;2022-07-30T03:27:46;101895.78;;;12.33;100.00
71485;BME280;59300;52.074;4.758;2022-07-30T03:31:06;101894.88;;;12.34;100.00
71485;BME280;59300;52.074;4.758;2022-07-30T03:34:26;101894.06;;;12.30;100.00
71485;BME280;59300;52.074;4.758;2022-07-30T03:37:46;101893.31;;;12.23;100.00
71485;BME280;59300;52.074;4.758;2022-07-30T03:41:06;101897.84;;;12.17;100.00
71485;BME280;59300;52.074;4.758;2022-07-30T03:44:26;101898.78;;;12.12;100.00
71485;BME280;59300;52.074;4.758;2022-07-30T03:47:47;101903.09;;;12.20;100.00
71485;BME280;59300;52.074;4.758;2022-07-30T03:51:07;101896.94;;;12.16;100.00
71485;BME280;59300;52.074;4.758;2022-07-30T03:54:26;101903.22;;;12.12;100.00
71485;BME280;59300;52.074;4.758;2022-07-30T03:58:05;101903.16;;;12.15;100.00
71485;BME280;59300;52.074;4.758;2022-07-30T04:01:25;101906.75;;;12.11;100.00
71485;BME280;59300;52.074;4.758;2022-07-30T04:04:48;101908.63;;;12.04;100.00
71485;BME280;59300;52.074;4.758;2022-07-30T04:08:07;101917.44;;;12.06;100.00
71485;BME280;59300;52.074;4.758;2022-07-30T04:11:26;101914.63;;;12.16;100.00
71485;BME280;59300;52.074;4.758;2022-07-30T04:14:55;101913.50;;;12.29;100.00
71485;BME280;59300;52.074;4.758;2022-07-30T04:18:15;101906.41;;;12.31;100.00
71485;BME280;59300;52.074;4.758;2022-07-30T04:21:36;101915.22;;;12.32;100.00
71485;BME280;59300;52.074;4.758;2022-07-30T04:24:57;101927.50;;;12.36;100.00
71485;BME280;59300;52.074;4.758;2022-07-30T04:28:18;101926.56;;;12.40;100.00
71485;BME280;59300;52.074;4.758;2022-07-30T04:31:37;101929.03;;;12.48;100.00
71485;BME280;59300;52.074;4.758;2022-07-30T04:35:11;101926.31;;;12.52;100.00
71485;BME280;59300;52.074;4.758;2022-07-30T04:38:57;101928.69;;;12.66;100.00
71485;BME280;59300;52.074;4.758;2022-07-30T04:42:16;101935.56;;;12.77;100.00
71485;BME280;59300;52.074;4.758;2022-07-30T04:45:41;101927.19;;;12.97;100.00
71485;BME280;59300;52.074;4.758;2022-07-30T04:49:01;101934.69;;;13.18;100.00
71485;BME280;59300;52.074;4.758;2022-07-30T04:52:24;101936.16;;;13.33;100.00
71485;BME280;59300;52.074;4.758;2022-07-30T04:55:46;101930.72;;;13.40;100.00
71485;BME280;59300;52.074;4.758;2022-07-30T04:59:08;101926.16;;;13.46;100.00
71485;BME280;59300;52.074;4.758;2022-07-30T05:02:29;101929.44;;;13.58;100.00
71485;BME280;59300;52.074;4.758;2022-07-30T05:05:50;101920.47;;;13.63;100.00
71485;BME280;59300;52.074;4.758;2022-07-30T05:09:10;101937.94;;;13.72;100.00
71485;BME280;59300;52.074;4.758;2022-07-30T05:12:36;101949.34;;;13.76;100.00
71485;BME280;59300;52.074;4.758;2022-07-30T05:15:55;101946.69;;;13.77;99.75
71485;BME280;59300;52.074;4.758;2022-07-30T05:19:17;101946.59;;;13.80;99.40
71485;BME280;59300;52.074;4.758;2022-07-30T05:22:36;101943.00;;;13.83;99.90
71485;BME280;59300;52.074;4.758;2022-07-30T05:25:56;101954.38;;;13.88;100.00
71485;BME280;59300;52.074;4.758;2022-07-30T05:29:22;101954.19;;;13.96;100.00
71485;BME280;59300;52.074;4.758;2022-07-30T05:32:53;101965.41;;;14.07;100.00
71485;BME280;59300;52.074;4.758;2022-07-30T05:36:12;101966.78;;;14.24;99.54
71485;BME280;59300;52.074;4.758;2022-07-30T05:39:32;101967.66;;;16.09;90.02
71485;BME280;59300;52.074;4.758;2022-07-30T05:43:12;101962.59;;;19.20;75.50
71485;BME280;59300;52.074;4.758;2022-07-30T05:46:31;101969.53;;;21.21;68.46
71485;BME280;59300;52.074;4.758;2022-07-30T05:49:50;101969.81;;;22.27;63.46
71485;BME280;59300;52.074;4.758;2022-07-30T05:53:09;101966.75;;;22.92;58.78
71485;BME280;59300;52.074;4.758;2022-07-30T05:56:53;101968.09;;;22.99;56.49
71485;BME280;59300;52.074;4.758;2022-07-30T06:00:25;101971.91;;;24.08;56.68
71485;BME280;59300;52.074;4.758;2022-07-30T06:03:46;101974.97;;;23.61;53.86
71485;BME280;59300;52.074;4.758;2022-07-30T06:07:24;101980.22;;;23.36;54.52
71485;BME280;59300;52.074;4.758;2022-07-30T06:10:46;101967.56;;;23.78;53.16
71485;BME280;59300;52.074;4.758;2022-07-30T06:14:04;101964.97;;;24.44;51.01
71485;BME280;59300;52.074;4.758;2022-07-30T06:17:24;101969.94;;;24.63;51.17
71485;BME280;59300;52.074;4.758;2022-07-30T06:20:57;101972.00;;;24.60;51.35
71485;BME280;59300;52.074;4.758;2022-07-30T06:24:22;101974.94;;;24.03;50.81
71485;BME280;59300;52.074;4.758;2022-07-30T06:27:57;101973.06;;;23.49;51.60
71485;BME280;59300;52.074;4.758;2022-07-30T06:31:16;101963.28;;;22.90;52.85
71485;BME280;59300;52.074;4.758;2022-07-30T06:34:35;101973.34;;;22.27;55.75
71485;BME280;59300;52.074;4.758;2022-07-30T06:37:54;101969.53;;;21.53;57.21
71485;BME280;59300;52.074;4.758;2022-07-30T06:41:15;101975.97;;;21.66;57.54
71485;BME280;59300;52.074;4.758;2022-07-30T06:44:43;101971.94;;;21.09;59.13
71485;BME280;59300;52.074;4.758;2022-07-30T06:48:13;101974.03;;;21.36;59.59
71485;BME280;59300;52.074;4.758;2022-07-30T06:51:33;101966.25;;;21.47;56.76
71485;BME280;59300;52.074;4.758;2022-07-30T06:54:52;101975.81;;;20.17;59.83
71485;BME280;59300;52.074;4.758;2022-07-30T06:58:28;101976.72;;;19.43;63.24
71485;BME280;59300;52.074;4.758;2022-07-30T07:02:10;101968.47;;;19.28;64.22
71485;BME280;59300;52.074;4.758;2022-07-30T07:05:49;101969.44;;;18.86;65.60
71485;BME280;59300;52.074;4.758;2022-07-30T07:09:08;101970.25;;;18.88;65.33
71485;BME280;59300;52.074;4.758;2022-07-30T07:12:37;101981.53;;;19.34;64.48
71485;BME280;59300;52.074;4.758;2022-07-30T07:15:58;101981.69;;;19.89;61.60
71485;BME280;59300;52.074;4.758;2022-07-30T07:19:19;101981.47;;;20.64;58.75
71485;BME280;59300;52.074;4.758;2022-07-30T07:22:38;101982.31;;;22.12;54.37
71485;BME280;59300;52.074;4.758;2022-07-30T07:25:57;101983.66;;;23.38;50.89
71485;BME280;59300;52.074;4.758;2022-07-30T07:29:16;101986.91;;;23.43;49.35
71485;BME280;59300;52.074;4.758;2022-07-30T07:32:35;101982.50;;;23.13;49.53
71485;BME280;59300;52.074;4.758;2022-07-30T07:35:55;101985.72;;;24.16;46.95
71485;BME280;59300;52.074;4.758;2022-07-30T07:39:19;101982.16;;;24.95;45.00
71485;BME280;59300;52.074;4.758;2022-07-30T07:42:39;101988.03;;;26.00;43.33
71485;BME280;59300;52.074;4.758;2022-07-30T07:45:59;101984.06;;;26.64;41.17
71485;BME280;59300;52.074;4.758;2022-07-30T07:49:21;101985.06;;;26.75;40.33
71485;BME280;59300;52.074;4.758;2022-07-30T07:52:44;101992.22;;;26.04;42.03
71485;BME280;59300;52.074;4.758;2022-07-30T07:56:04;101991.69;;;26.71;40.11
71485;BME280;59300;52.074;4.758;2022-07-30T07:59:23;102001.53;;;26.60;38.71
71485;BME280;59300;52.074;4.758;2022-07-30T08:02:42;101994.16;;;26.02;40.60
71485;BME280;59300;52.074;4.758;2022-07-30T08:06:02;101988.75;;;26.74;39.84
71485;BME280;59300;52.074;4.758;2022-07-30T08:09:39;101988.50;;;26.77;39.58
71485;BME280;59300;52.074;4.758;2022-07-30T08:13:04;101983.31;;;27.65;37.08
71485;BME280;59300;52.074;4.758;2022-07-30T08:16:42;101983.09;;;26.77;38.69
71485;BME280;59300;52.074;4.758;2022-07-30T08:20:36;101982.63;;;27.51;38.26
71485;BME280;59300;52.074;4.758;2022-07-30T08:23:55;101982.53;;;28.39;36.90
71485;BME280;59300;52.074;4.758;2022-07-30T08:27:13;101981.06;;;27.70;37.86
71485;BME280;59300;52.074;4.758;2022-07-30T08:30:34;101978.59;;;28.32;36.36
71485;BME280;59300;52.074;4.758;2022-07-30T08:33:55;101969.72;;;28.30;37.92
71485;BME280;59300;52.074;4.758;2022-07-30T08:37:15;101967.06;;;28.61;36.76
71485;BME280;59300;52.074;4.758;2022-07-30T08:40:34;101976.44;;;28.26;36.35
71485;BME280;59300;52.074;4.758;2022-07-30T08:43:59;101983.59;;;28.27;37.17
71485;BME280;59300;52.074;4.758;2022-07-30T08:47:26;101978.16;;;28.27;37.56
71485;BME280;59300;52.074;4.758;2022-07-30T08:51:18;101977.44;;;28.98;35.50
71485;BME280;59300;52.074;4.758;2022-07-30T08:55:00;101989.34;;;28.12;36.95
71485;BME280;59300;52.074;4.758;2022-07-30T08:58:28;101989.25;;;27.58;38.12
71485;BME280;59300;52.074;4.758;2022-07-30T09:01:47;102000.88;;;26.45;40.98
71485;BME280;59300;52.074;4.758;2022-07-30T09:05:07;101986.84;;;27.77;36.90
71485;BME280;59300;52.074;4.758;2022-07-30T09:08:27;101996.09;;;28.07;36.64
71485;BME280;59300;52.074;4.758;2022-07-30T09:11:46;101994.56;;;28.46;35.64
71485;BME280;59300;52.074;4.758;2022-07-30T09:18:37;101996.41;;;28.67;36.17
71485;BME280;59300;52.074;4.758;2022-07-30T09:21:59;101998.47;;;27.67;37.66
71485;BME280;59300;52.074;4.758;2022-07-30T09:25:41;102000.94;;;29.19;33.73
71485;BME280;59300;52.074;4.758;2022-07-30T09:29:21;101997.22;;;28.15;37.32
71485;BME280;59300;52.074;4.758;2022-07-30T09:32:59;101997.41;;;28.24;36.82
71485;BME280;59300;52.074;4.758;2022-07-30T09:36:37;101988.69;;;28.20;37.13
71485;BME280;59300;52.074;4.758;2022-07-30T09:40:16;101996.09;;;28.39;35.84
71485;BME280;59300;52.074;4.758;2022-07-30T09:43:54;101983.94;;;28.86;34.37
71485;BME280;59300;52.074;4.758;2022-07-30T09:47:41;101990.31;;;29.37;33.74
71485;BME280;59300;52.074;4.758;2022-07-30T09:51:00;101991.91;;;29.08;33.23
71485;BME280;59300;52.074;4.758;2022-07-30T09:54:19;101989.34;;;28.12;35.47
71485;BME280;59300;52.074;4.758;2022-07-30T09:58:00;101979.72;;;28.72;33.67
71485;BME280;59300;52.074;4.758;2022-07-30T10:01:20;101986.06;;;28.18;36.07
71485;BME280;59300;52.074;4.758;2022-07-30T10:04:46;101979.94;;;28.38;35.19
71485;BME280;59300;52.074;4.758;2022-07-30T10:08:08;101987.09;;;28.06;33.78
71485;BME280;59300;52.074;4.758;2022-07-30T10:11:27;101981.00;;;27.37;35.68
71485;BME280;59300;52.074;4.758;2022-07-30T10:14:52;101976.22;;;27.52;35.33
71485;BME280;59300;52.074;4.758;2022-07-30T10:18:13;101985.81;;;28.22;34.83
71485;BME280;59300;52.074;4.758;2022-07-30T10:21:52;101971.06;;;29.19;32.57
71485;BME280;59300;52.074;4.758;2022-07-30T10:25:11;101982.63;;;28.59;33.32
71485;BME280;59300;52.074;4.758;2022-07-30T10:29:06;101985.25;;;28.70;33.15
71485;BME280;59300;52.074;4.758;2022-07-30T10:32:28;101993.56;;;29.31;32.33
71485;BME280;59300;52.074;4.758;2022-07-30T10:35:47;101989.94;;;28.79;33.11
71485;BME280;59300;52.074;4.758;2022-07-30T10:39:08;101984.41;;;29.32;33.16
71485;BME280;59300;52.074;4.758;2022-07-30T10:42:46;101992.59;;;28.48;34.69
71485;BME280;59300;52.074;4.758;2022-07-30T10:46:54;101985.66;;;28.02;35.36
71485;BME280;59300;52.074;4.758;2022-07-30T10:57:04;101982.97;;;28.44;34.34
71485;BME280;59300;52.074;4.758;2022-07-30T11:00:24;101976.56;;;28.45;34.14
71485;BME280;59300;52.074;4.758;2022-07-30T11:04:16;101986.63;;;28.01;36.15
71485;BME280;59300;52.074;4.758;2022-07-30T11:07:36;101973.75;;;27.49;37.30
71485;BME280;59300;52.074;4.758;2022-07-30T11:10:55;101970.50;;;27.44;36.60
71485;BME280;59300;52.074;4.758;2022-07-30T11:14:14;101972.75;;;27.16;39.43
71485;BME280;59300;52.074;4.758;2022-07-30T11:18:02;101967.53;;;27.58;37.83
71485;BME280;59300;52.074;4.758;2022-07-30T11:21:21;101976.94;;;27.32;36.77
71485;BME280;59300;52.074;4.758;2022-07-30T11:24:44;101969.16;;;26.59;38.27
71485;BME280;59300;52.074;4.758;2022-07-30T11:28:03;101970.06;;;26.24;38.51
71485;BME280;59300;52.074;4.758;2022-07-30T11:31:30;101971.31;;;26.31;38.82
71485;BME280;59300;52.074;4.758;2022-07-30T11:34:50;101988.91;;;26.25;40.59
71485;BME280;59300;52.074;4.758;2022-07-30T11:41:30;101979.09;;;26.35;40.40
71485;BME280;59300;52.074;4.758;2022-07-30T11:44:52;101969.25;;;26.46;40.58
71485;BME280;59300;52.074;4.758;2022-07-30T11:48:13;101960.19;;;26.70;38.63
71485;BME280;59300;52.074;4.758;2022-07-30T11:51:40;101972.72;;;26.48;38.67
71485;BME280;59300;52.074;4.758;2022-07-30T11:54:59;101968.22;;;26.24;39.69
71485;BME280;59300;52.074;4.758;2022-07-30T11:58:36;101964.34;;;26.40;40.44
71485;BME280;59300;52.074;4.758;2022-07-30T12:01:55;101955.81;;;27.03;38.13
71485;BME280;59300;52.074;4.758;2022-07-30T12:05:15;101964.91;;;27.02;38.78
71485;BME280;59300;52.074;4.758;2022-07-30T12:08:39;101967.72;;;27.46;39.61
71485;BME280;59300;52.074;4.758;2022-07-30T12:11:58;101968.06;;;27.29;40.34
71485;BME280;59300;52.074;4.758;2022-07-30T12:15:28;101971.13;;;27.48;38.94
71485;BME280;59300;52.074;4.758;2022-07-30T12:18:48;101973.00;;;27.47;38.87
71485;BME280;59300;52.074;4.758;2022-07-30T12:22:07;101975.19;;;27.65;39.68
71485;BME280;59300;52.074;4.758;2022-07-30T12:25:25;101968.41;;;27.92;36.88
71485;BME280;59300;52.074;4.758;2022-07-30T12:28:45;101971.94;;;28.36;36.43
71485;BME280;59300;52.074;4.758;2022-07-30T12:32:04;101966.38;;;28.16;38.03
71485;BME280;59300;52.074;4.758;2022-07-30T12:35:40;101970.78;;;29.22;34.24
71485;BME280;59300;52.074;4.758;2022-07-30T12:39:02;101971.78;;;29.81;33.76
71485;BME280;59300;52.074;4.758;2022-07-30T12:42:21;101966.94;;;28.62;36.50
71485;BME280;59300;52.074;4.758;2022-07-30T12:45:40;101969.41;;;28.44;37.21
71485;BME280;59300;52.074;4.758;2022-07-30T12:49:01;101960.41;;;27.90;37.79
71485;BME280;59300;52.074;4.758;2022-07-30T12:52:30;101962.06;;;28.02;36.87
71485;BME280;59300;52.074;4.758;2022-07-30T12:55:49;101962.06;;;28.14;36.51
71485;BME280;59300;52.074;4.758;2022-07-30T12:59:20;101957.38;;;28.37;36.14
71485;BME280;59300;52.074;4.758;2022-07-30T13:02:39;101954.22;;;28.63;35.72
71485;BME280;59300;52.074;4.758;2022-07-30T13:05:57;101959.72;;;27.77;36.89
71485;BME280;59300;52.074;4.758;2022-07-30T13:09:20;101950.31;;;28.56;36.62
71485;BME280;59300;52.074;4.758;2022-07-30T13:12:39;101951.06;;;28.36;35.64
71485;BME280;59300;52.074;4.758;2022-07-30T13:16:00;101951.38;;;28.01;36.37
71485;BME280;59300;52.074;4.758;2022-07-30T13:19:19;101948.09;;;27.31;37.66
71485;BME280;59300;52.074;4.758;2022-07-30T13:22:38;101946.53;;;26.71;38.88
71485;BME280;59300;52.074;4.758;2022-07-30T13:25:57;101946.38;;;26.50;39.85
71485;BME280;59300;52.074;4.758;2022-07-30T13:29:16;101950.16;;;26.36;41.27
71485;BME280;59300;52.074;4.758;2022-07-30T13:32:35;101951.19;;;25.86;41.39
71485;BME280;59300;52.074;4.758;2022-07-30T13:35:54;101943.50;;;26.17;41.75
71485;BME280;59300;52.074;4.758;2022-07-30T13:39:13;101936.41;;;26.39;42.28
71485;BME280;59300;52.074;4.758;2022-07-30T13:42:32;101936.03;;;26.44;41.93
71485;BME280;59300;52.074;4.758;2022-07-30T13:45:52;101943.94;;;26.70;40.93
71485;BME280;59300;52.074;4.758;2022-07-30T13:49:11;101942.00;;;26.94;41.10
71485;BME280;59300;52.074;4.758;2022-07-30T13:52:30;101939.66;;;26.90;41.08
71485;BME280;59300;52.074;4.758;2022-07-30T13:55:49;101934.38;;;27.00;42.98
71485;BME280;59300;52.074;4.758;2022-07-30T13:59:08;101934.22;;;27.12;41.14
71485;BME280;59300;52.074;4.758;2022-07-30T14:02:26;101930.44;;;26.81;43.00
71485;BME280;59300;52.074;4.758;2022-07-30T14:05:45;101928.88;;;27.45;39.54
71485;BME280;59300;52.074;4.758;2022-07-30T14:09:04;101934.06;;;26.57;41.67
71485;BME280;59300;52.074;4.758;2022-07-30T14:12:23;101933.81;;;26.37;42.75
71485;BME280;59300;52.074;4.758;2022-07-30T14:15:45;101928.44;;;26.60;41.61
71485;BME280;59300;52.074;4.758;2022-07-30T14:19:04;101926.34;;;26.87;41.03
71485;BME280;59300;52.074;4.758;2022-07-30T14:22:23;101913.06;;;26.95;39.71
71485;BME280;59300;52.074;4.758;2022-07-30T14:25:42;101918.06;;;27.22;40.72
71485;BME280;59300;52.074;4.758;2022-07-30T14:29:04;101916.53;;;27.41;39.97
71485;BME280;59300;52.074;4.758;2022-07-30T14:32:23;101907.16;;;27.56;39.91
71485;BME280;59300;52.074;4.758;2022-07-30T14:35:42;101899.81;;;27.47;38.58
71485;BME280;59300;52.074;4.758;2022-07-30T14:39:02;101899.63;;;27.05;40.24
71485;BME280;59300;52.074;4.758;2022-07-30T14:42:21;101892.47;;;27.04;40.50
71485;BME280;59300;52.074;4.758;2022-07-30T14:45:40;101895.22;;;27.80;38.80
71485;BME280;59300;52.074;4.758;2022-07-30T14:48:59;101893.56;;;28.84;35.77
71485;BME280;59300;52.074;4.758;2022-07-30T14:52:18;101895.50;;;28.72;35.57
71485;BME280;59300;52.074;4.758;2022-07-30T14:55:37;101895.47;;;28.62;36.21
71485;BME280;59300;52.074;4.758;2022-07-30T14:58:56;101895.13;;;28.03;37.38
71485;BME280;59300;52.074;4.758;2022-07-30T15:02:15;101894.53;;;27.67;39.51
71485;BME280;59300;52.074;4.758;2022-07-30T15:05:34;101894.47;;;27.02;39.37
71485;BME280;59300;52.074;4.758;2022-07-30T15:08:53;101887.56;;;26.97;39.72
71485;BME280;59300;52.074;4.758;2022-07-30T15:12:12;101884.06;;;27.18;38.44
71485;BME280;59300;52.074;4.758;2022-07-30T15:15:31;101886.69;;;27.20;39.11
71485;BME280;59300;52.074;4.758;2022-07-30T15:18:50;101884.06;;;27.18;38.61
71485;BME280;59300;52.074;4.758;2022-07-30T15:22:09;101893.69;;;26.43;41.07
71485;BME280;59300;52.074;4.758;2022-07-30T15:25:28;101892.97;;;25.94;43.44
71485;BME280;59300;52.074;4.758;2022-07-30T15:28:47;101892.25;;;25.67;43.20
71485;BME280;59300;52.074;4.758;2022-07-30T15:32:06;101896.81;;;25.67;44.04
71485;BME280;59300;52.074;4.758;2022-07-30T15:35:25;101898.00;;;25.38;44.60
71485;BME280;59300;52.074;4.758;2022-07-30T15:38:44;101900.22;;;25.20;45.36
71485;BME280;59300;52.074;4.758;2022-07-30T15:42:03;101907.53;;;25.31;46.08
71485;BME280;59300;52.074;4.758;2022-07-30T15:45:22;101907.19;;;24.98;49.31
71485;BME280;59300;52.074;4.758;2022-07-30T15:48:41;101898.78;;;24.77;50.00
71485;BME280;59300;52.074;4.758;2022-07-30T15:52:00;101906.78;;;24.53;51.71
71485;BME280;59300;52.074;4.758;2022-07-30T15:55:19;101907.84;;;24.63;50.95
71485;BME280;59300;52.074;4.758;2022-07-30T15:58:38;101897.50;;;24.44;51.02
71485;BME280;59300;52.074;4.758;2022-07-30T16:01:57;101909.38;;;24.54;51.33
71485;BME280;59300;52.074;4.758;2022-07-30T16:05:16;101908.94;;;24.35;52.09
71485;BME280;59300;52.074;4.758;2022-07-30T16:08:34;101906.47;;;24.58;51.90
71485;BME280;59300;52.074;4.758;2022-07-30T16:11:53;101905.91;;;24.78;51.79
71485;BME280;59300;52.074;4.758;2022-07-30T16:15:15;101894.91;;;24.81;51.47
71485;BME280;59300;52.074;4.758;2022-07-30T16:18:34;101897.41;;;24.84;51.09
71485;BME280;59300;52.074;4.758;2022-07-30T16:21:53;101901.38;;;24.40;52.48
71485;BME280;59300;52.074;4.758;2022-07-30T16:25:12;101902.56;;;24.49;51.35
71485;BME280;59300;52.074;4.758;2022-07-30T16:28:31;101898.16;;;24.35;50.77
71485;BME280;59300;52.074;4.758;2022-07-30T16:31:50;101893.38;;;24.51;50.76
71485;BME280;59300;52.074;4.758;2022-07-30T16:35:09;101891.69;;;24.37;49.31
71485;BME280;59300;52.074;4.758;2022-07-30T16:38:31;101877.63;;;24.32;50.53
71485;BME280;59300;52.074;4.758;2022-07-30T16:41:50;101878.72;;;24.17;49.66
71485;BME280;59300;52.074;4.758;2022-07-30T16:45:09;101881.41;;;24.04;50.58
71485;BME280;59300;52.074;4.758;2022-07-30T16:48:28;101884.00;;;23.78;50.66
71485;BME280;59300;52.074;4.758;2022-07-30T16:51:47;101883.53;;;23.58;52.18
71485;BME280;59300;52.074;4.758;2022-07-30T16:55:07;101871.03;;;23.57;52.76
71485;BME280;59300;52.074;4.758;2022-07-30T16:58:26;101878.00;;;23.87;51.41
71485;BME280;59300;52.074;4.758;2022-07-30T17:01:45;101875.41;;;23.86;51.50
71485;BME280;59300;52.074;4.758;2022-07-30T17:05:05;101866.56;;;23.84;50.69
71485;BME280;59300;52.074;4.758;2022-07-30T17:08:24;101856.44;;;23.87;51.36
71485;BME280;59300;52.074;4.758;2022-07-30T17:11:46;101851.72;;;23.91;49.87
71485;BME280;59300;52.074;4.758;2022-07-30T17:15:05;101852.03;;;23.86;50.53
71485;BME280;59300;52.074;4.758;2022-07-30T17:18:24;101855.13;;;23.67;52.61
71485;BME280;59300;52.074;4.758;2022-07-30T17:21:43;101840.22;;;23.61;51.72
71485;BME280;59300;52.074;4.758;2022-07-30T17:25:03;101842.78;;;23.50;52.06
71485;BME280;59300;52.074;4.758;2022-07-30T17:28:22;101849.59;;;23.28;52.50
71485;BME280;59300;52.074;4.758;2022-07-30T17:31:42;101845.09;;;23.14;53.20
71485;BME280;59300;52.074;4.758;2022-07-30T17:35:02;101839.06;;;22.96;53.54
71485;BME280;59300;52.074;4.758;2022-07-30T17:38:21;101838.88;;;22.99;53.89
71485;BME280;59300;52.074;4.758;2022-07-30T17:41:40;101835.34;;;22.84;54.59
71485;BME280;59300;52.074;4.758;2022-07-30T17:44:59;101834.69;;;22.66;54.83
71485;BME280;59300;52.074;4.758;2022-07-30T17:48:19;101830.69;;;22.59;54.60
71485;BME280;59300;52.074;4.758;2022-07-30T17:51:38;101827.41;;;22.54;55.04